createdAt,value
2022-11-22T00:02:08.517Z,61.21
2022-11-22T00:04:36.828Z,60.92
2022-11-22T00:07:05.533Z,61.25
2022-11-22T00:09:32.945Z,61.17
2022-11-22T00:12:00.366Z,61.31
2022-11-22T00:14:27.802Z,61.26
2022-11-22T00:16:55.196Z,60.93
2022-11-22T00:19:22.588Z,61.29
2022-11-22T00:21:49.989Z,60.93
2022-11-22T00:24:18.720Z,60.96
2022-11-22T00:26:46.126Z,61.23
2022-11-22T00:29:14.437Z,61.11
2022-11-22T00:31:41.859Z,61.12
2022-11-22T00:34:09.257Z,60.98
2022-11-22T00:36:36.664Z,61.08
2022-11-22T00:39:04.185Z,61.07
2022-11-22T00:41:32.956Z,60.96
2022-11-22T00:44:00.379Z,61.08
2022-11-22T00:46:28.040Z,61.12
2022-11-22T00:48:55.441Z,60.67
2022-11-22T00:51:22.949Z,60.72
2022-11-22T00:53:50.344Z,61.04
2022-11-22T00:56:17.722Z,60.97
2022-11-22T00:58:46.420Z,61.15
2022-11-22T01:01:13.853Z,60.80
2022-11-22T01:03:41.275Z,60.92
2022-11-22T01:06:08.702Z,61.03
2022-11-22T01:08:36.105Z,60.83
2022-11-22T01:11:03.552Z,60.85
2022-11-22T01:13:30.960Z,61.09
2022-11-22T01:16:01.179Z,60.92
2022-11-22T01:18:28.580Z,60.88
2022-11-22T01:20:55.979Z,61.04
2022-11-22T01:23:23.372Z,61.07
2022-11-22T01:25:50.840Z,60.54
2022-11-22T01:28:18.345Z,61.01
2022-11-22T01:30:45.747Z,60.69
2022-11-22T01:33:14.449Z,60.79
2022-11-22T01:35:41.873Z,60.83
2022-11-22T01:38:09.295Z,60.86
2022-11-22T01:40:36.762Z,60.79
2022-11-22T01:43:04.407Z,60.70
2022-11-22T01:45:39.066Z,60.98
2022-11-22T01:48:07.652Z,60.67
2022-11-22T01:50:37.092Z,60.88
2022-11-22T01:53:06.885Z,60.96
2022-11-22T01:55:34.810Z,60.84
2022-11-22T01:58:02.227Z,60.81
2022-11-22T02:00:29.635Z,60.83
2022-11-22T02:02:59.290Z,60.70
2022-11-22T02:05:27.987Z,60.85
2022-11-22T02:07:59.903Z,60.71
2022-11-22T02:10:28.634Z,61.00
2022-11-22T02:12:56.832Z,61.44
2022-11-22T02:15:24.289Z,61.51
2022-11-22T02:17:51.701Z,61.31
2022-11-22T02:20:19.300Z,61.57
2022-11-22T02:22:48.706Z,61.52
2022-11-22T02:25:20.695Z,61.23
2022-11-22T02:27:49.430Z,61.27
2022-11-22T02:30:17.788Z,61.30
2022-11-22T02:32:45.279Z,61.35
2022-11-22T02:35:18.058Z,61.19
2022-11-22T02:37:45.632Z,61.33
2022-11-22T02:40:14.571Z,61.12
2022-11-22T02:42:42.536Z,61.18
2022-11-22T02:45:11.759Z,61.35
2022-11-22T02:47:39.186Z,61.03
2022-11-22T02:50:07.472Z,61.10
2022-11-22T02:52:34.893Z,61.37
2022-11-22T02:55:02.297Z,61.33
2022-11-22T02:57:29.740Z,61.00
2022-11-22T02:59:57.154Z,60.99
2022-11-22T03:02:25.886Z,61.25
2022-11-22T03:04:53.299Z,61.15
2022-11-22T03:07:20.844Z,61.03
2022-11-22T03:09:48.368Z,61.31
2022-11-22T03:12:15.797Z,61.12
2022-11-22T03:14:43.704Z,61.23
2022-11-22T03:17:11.158Z,60.98
2022-11-22T03:19:39.891Z,61.04
2022-11-22T03:22:07.315Z,61.02
2022-11-22T03:24:34.742Z,61.08
2022-11-22T03:27:02.158Z,61.17
2022-11-22T03:29:29.898Z,61.16
2022-11-22T03:31:57.526Z,61.21
2022-11-22T03:34:24.933Z,61.32
2022-11-22T03:36:53.629Z,61.24
2022-11-22T03:39:21.016Z,61.26
2022-11-22T03:41:48.500Z,61.32
2022-11-22T03:44:15.904Z,61.62
2022-11-22T03:46:43.360Z,61.46
2022-11-22T03:49:11.830Z,61.49
2022-11-22T03:51:39.269Z,61.50
2022-11-22T03:54:07.995Z,61.53
2022-11-22T03:56:35.424Z,61.23
2022-11-22T03:59:02.836Z,61.26
2022-11-22T04:01:30.373Z,61.16
2022-11-22T04:03:57.943Z,61.20
2022-11-22T04:06:25.390Z,61.27
2022-11-22T04:08:52.832Z,61.25
2022-11-22T04:11:21.600Z,61.27
2022-11-22T04:14:06.413Z,61.16
2022-11-22T04:16:33.831Z,61.02
2022-11-22T04:19:01.247Z,61.17
2022-11-22T04:21:36.662Z,60.95
2022-11-22T04:24:18.584Z,61.01
2022-11-22T04:26:47.298Z,61.06
2022-11-22T04:29:14.738Z,61.07
2022-11-22T04:31:59.874Z,60.81
2022-11-22T04:34:27.315Z,61.10
2022-11-22T04:36:54.728Z,60.85
2022-11-22T04:39:22.143Z,60.67
2022-11-22T04:42:13.608Z,60.83
2022-11-22T04:44:43.231Z,60.88
2022-11-22T04:47:10.784Z,60.77
2022-11-22T04:49:38.184Z,60.75
2022-11-22T04:52:23.450Z,60.95
2022-11-22T04:54:50.907Z,60.86
2022-11-22T04:57:19.617Z,60.73
2022-11-22T04:59:47.017Z,60.75
2022-11-22T05:02:14.442Z,60.85
2022-11-22T05:04:44.089Z,60.83
2022-11-22T05:07:15.160Z,60.72
2022-11-22T05:09:42.570Z,60.84
2022-11-22T05:12:09.968Z,60.58
2022-11-22T05:14:38.703Z,60.65
2022-11-22T05:17:06.115Z,60.73
2022-11-22T05:19:33.528Z,60.66
2022-11-22T05:22:01.148Z,60.51
2022-11-22T05:24:27.627Z,60.67
2022-11-22T05:26:55.043Z,60.66
2022-11-22T05:29:22.629Z,61.08
2022-11-22T05:31:51.625Z,61.10
2022-11-22T05:34:19.073Z,61.08
2022-11-22T05:36:46.491Z,61.07
2022-11-22T05:39:13.900Z,61.24
2022-11-22T05:41:55.618Z,61.07
2022-11-22T05:44:23.167Z,61.00
2022-11-22T05:46:51.876Z,61.17
2022-11-22T05:49:19.280Z,61.12
2022-11-22T05:51:46.713Z,61.06
2022-11-22T05:54:14.127Z,60.94
2022-11-22T05:56:41.569Z,60.94
2022-11-22T05:59:08.999Z,60.98
2022-11-22T06:01:36.449Z,60.93
2022-11-22T06:04:05.205Z,61.08
2022-11-22T06:06:32.647Z,61.04
2022-11-22T06:09:00.105Z,61.13
2022-11-22T06:11:28.230Z,61.27
2022-11-22T06:14:03.146Z,61.33
2022-11-22T06:16:30.636Z,61.40
2022-11-22T06:18:58.064Z,61.22
2022-11-22T06:21:28.273Z,61.41
2022-11-22T06:23:55.842Z,61.79
2022-11-22T06:26:23.803Z,61.60
2022-11-22T06:28:51.355Z,61.72
2022-11-22T06:31:19.621Z,61.80
2022-11-22T06:33:47.059Z,61.93
2022-11-22T06:36:15.178Z,61.97
2022-11-22T06:38:44.200Z,62.01
2022-11-22T06:41:12.147Z,62.02
2022-11-22T06:43:43.784Z,62.14
2022-11-22T06:46:16.038Z,62.12
2022-11-22T06:48:43.664Z,62.02
2022-11-22T06:51:12.278Z,62.05
2022-11-22T06:53:47.322Z,62.22
2022-11-22T06:56:18.418Z,62.02
2022-11-22T06:58:46.077Z,62.10
2022-11-22T07:01:15.070Z,62.22
2022-11-22T07:03:42.905Z,61.96
2022-11-22T07:06:12.649Z,62.31
2022-11-22T07:08:40.147Z,62.10
2022-11-22T07:11:08.514Z,62.29
2022-11-22T07:13:37.328Z,62.39
2022-11-22T07:16:05.711Z,62.52
2022-11-22T07:18:33.212Z,62.31
2022-11-22T07:21:01.477Z,62.79
2022-11-22T07:23:29.932Z,62.56
2022-11-22T07:25:57.372Z,62.48
2022-11-22T07:28:24.791Z,62.66
2022-11-22T07:30:53.526Z,62.66
2022-11-22T07:33:21.015Z,62.74
2022-11-22T07:35:48.417Z,62.72
2022-11-22T07:38:15.853Z,62.54
2022-11-22T07:40:43.297Z,62.65
2022-11-22T07:43:10.737Z,62.74
2022-11-22T07:45:39.193Z,62.37
2022-11-22T07:48:08.200Z,62.70
2022-11-22T07:50:35.630Z,62.72
2022-11-22T07:53:03.079Z,62.66
2022-11-22T07:55:31.361Z,62.50
2022-11-22T07:57:59.313Z,62.35
2022-11-22T08:00:27.191Z,62.16
2022-11-22T08:02:54.681Z,62.39
2022-11-22T08:05:23.403Z,62.41
2022-11-22T08:07:52.542Z,62.20
2022-11-22T08:10:20.014Z,62.14
2022-11-22T08:12:47.418Z,62.38
2022-11-22T08:15:15.469Z,62.44
2022-11-22T08:17:42.879Z,62.30
2022-11-22T08:20:10.614Z,62.14
2022-11-22T08:22:39.572Z,62.09
2022-11-22T08:25:12.283Z,61.88
2022-11-22T08:27:41.073Z,61.98
2022-11-22T08:30:08.865Z,61.99
2022-11-22T08:32:36.396Z,61.81
2022-11-22T08:35:03.837Z,61.62
2022-11-22T08:37:31.269Z,61.76
2022-11-22T08:39:59.987Z,61.43
2022-11-22T08:42:27.538Z,61.17
2022-11-22T08:44:55.469Z,60.78
2022-11-22T08:47:23.019Z,60.86
2022-11-22T08:49:50.483Z,60.55
2022-11-22T08:52:17.922Z,60.57
2022-11-22T08:54:45.378Z,60.59
2022-11-22T08:57:14.099Z,60.64
2022-11-22T08:59:41.619Z,60.43
2022-11-22T09:02:09.875Z,60.35
2022-11-22T09:04:37.390Z,60.51
2022-11-22T09:09:52.238Z,60.24
2022-11-22T09:12:21.958Z,60.49
2022-11-22T09:14:49.588Z,60.09
2022-11-22T09:17:18.222Z,59.86
2022-11-22T09:19:45.885Z,59.67
2022-11-22T09:22:13.288Z,59.30
2022-11-22T09:24:40.724Z,59.39
2022-11-22T09:27:08.213Z,59.36
2022-11-22T09:29:36.956Z,59.06
2022-11-22T09:32:04.431Z,59.24
2022-11-22T09:34:31.832Z,59.04
2022-11-22T09:36:59.257Z,59.74
2022-11-22T09:39:26.771Z,60.32
2022-11-22T09:42:30.159Z,60.27
2022-11-22T09:45:17.659Z,59.76
2022-11-22T09:47:48.736Z,59.42
2022-11-22T09:50:19.547Z,59.40
2022-11-22T09:52:49.014Z,59.23
2022-11-22T09:55:23.885Z,58.95
2022-11-22T09:57:56.847Z,58.85
2022-11-22T10:00:26.229Z,58.87
2022-11-22T10:03:00.671Z,58.74
2022-11-22T10:05:30.563Z,58.92
2022-11-22T10:08:00.420Z,58.58
2022-11-22T10:10:28.864Z,58.13
2022-11-22T10:12:58.198Z,58.18
2022-11-22T10:15:29.187Z,57.93
2022-11-22T10:17:57.529Z,57.68
2022-11-22T10:20:25.795Z,58.03
2022-11-22T10:22:53.253Z,57.93
2022-11-22T10:25:22.203Z,57.84
2022-11-22T10:28:00.796Z,58.10
2022-11-22T10:30:33.121Z,58.05
2022-11-22T10:33:04.144Z,58.28
2022-11-22T10:35:39.594Z,58.07
2022-11-22T10:38:16.546Z,58.29
2022-11-22T10:40:46.742Z,58.59
2022-11-22T10:43:21.295Z,58.67
2022-11-22T10:45:50.730Z,58.52
2022-11-22T10:48:23.496Z,58.70
2022-11-22T10:50:56.193Z,58.62
2022-11-22T10:53:28.581Z,58.76
2022-11-22T10:55:58.398Z,58.95
2022-11-22T10:58:32.044Z,58.80
2022-11-22T11:01:03.628Z,58.65
2022-11-22T11:03:31.844Z,58.62
2022-11-22T11:06:21.616Z,58.57
2022-11-22T11:11:40.042Z,58.34
2022-11-22T11:14:08.625Z,58.19
2022-11-22T11:16:37.450Z,58.31
2022-11-22T11:19:12.347Z,58.22
2022-11-22T11:21:39.786Z,58.05
2022-11-22T11:24:10.631Z,57.93
2022-11-22T11:26:38.040Z,57.93
2022-11-22T11:29:33.307Z,57.79
2022-11-22T11:32:11.297Z,59.05
2022-11-22T11:34:39.768Z,57.94
2022-11-22T11:37:07.430Z,57.88
2022-11-22T11:39:36.280Z,57.93
2022-11-22T11:42:22.370Z,57.38
2022-11-22T11:44:49.811Z,57.63
2022-11-22T11:47:20.895Z,57.59
2022-11-22T11:49:51.584Z,57.33
2022-11-22T11:52:20.332Z,57.13
2022-11-22T11:54:48.490Z,57.16
2022-11-22T11:57:16.127Z,57.28
2022-11-22T11:59:45.019Z,57.11
2022-11-22T12:02:14.263Z,57.14
2022-11-22T12:04:50.657Z,57.97
2022-11-22T12:07:19.382Z,57.99
2022-11-22T12:09:47.484Z,57.96
2022-11-22T12:12:31.477Z,57.93
2022-11-22T12:15:11.133Z,58.00
2022-11-22T12:17:47.648Z,57.89
2022-11-22T12:20:17.774Z,58.01
2022-11-22T12:22:50.925Z,57.77
2022-11-22T12:25:32.639Z,57.72
2022-11-22T12:28:01.413Z,57.74
2022-11-22T12:30:28.837Z,60.03
2022-11-22T12:32:59.447Z,58.64
2022-11-22T12:35:28.194Z,58.85
2022-11-22T12:37:56.130Z,60.15
2022-11-22T12:40:25.472Z,59.72
2022-11-22T12:42:53.825Z,59.90
2022-11-22T12:45:25.446Z,59.14
2022-11-22T12:47:52.863Z,59.44
2022-11-22T12:50:23.532Z,59.39
2022-11-22T12:52:53.894Z,59.62
2022-11-22T12:55:22.456Z,59.38
2022-11-22T12:57:52.527Z,59.56
2022-11-22T13:00:21.988Z,59.33
2022-11-22T13:02:59.201Z,59.53
2022-11-22T13:05:28.353Z,59.40
2022-11-22T13:08:00.048Z,59.51
2022-11-22T13:10:31.667Z,59.53
2022-11-22T13:12:59.123Z,59.65
2022-11-22T13:15:28.196Z,59.58
2022-11-22T13:17:55.737Z,59.78
2022-11-22T13:20:23.774Z,59.67
2022-11-22T13:22:56.996Z,59.58
2022-11-22T13:25:37.653Z,59.65
2022-11-22T13:28:07.844Z,59.61
2022-11-22T13:30:35.264Z,59.59
2022-11-22T13:33:02.726Z,59.54
2022-11-22T13:35:31.243Z,59.61
2022-11-22T13:37:59.669Z,59.60
2022-11-22T13:40:28.919Z,59.61
2022-11-22T13:43:34.219Z,59.50
2022-11-22T13:46:01.849Z,59.50
2022-11-22T13:49:06.506Z,59.77
2022-11-22T13:51:53.978Z,59.71
2022-11-22T13:54:58.482Z,59.74
2022-11-22T13:57:34.820Z,59.81
2022-11-22T14:00:39.829Z,59.52
2022-11-22T14:03:37.826Z,59.59
2022-11-22T14:06:29.013Z,59.61
2022-11-22T14:09:26.822Z,59.29
2022-11-22T14:12:02.793Z,59.26
2022-11-22T14:14:32.207Z,59.55
2022-11-22T14:17:05.554Z,59.27
2022-11-22T14:19:37.025Z,59.46
2022-11-22T14:22:11.860Z,59.52
2022-11-22T14:24:46.576Z,59.62
2022-11-22T14:27:23.541Z,59.51
2022-11-22T14:30:02.608Z,59.30
2022-11-22T14:32:42.348Z,59.03
2022-11-22T14:35:26.363Z,59.51
2022-11-22T14:38:05.104Z,59.60
2022-11-22T14:40:37.304Z,59.35
2022-11-22T14:43:07.030Z,59.53
2022-11-22T14:45:42.203Z,59.77
2022-11-22T14:48:19.573Z,59.93
2022-11-22T14:50:49.781Z,60.05
2022-11-22T14:53:22.132Z,60.05
2022-11-22T14:55:49.910Z,60.01
2022-11-22T14:58:22.798Z,60.13
2022-11-22T15:01:14.895Z,60.12
2022-11-22T15:09:10.444Z,60.14
2022-11-22T15:09:21.284Z,59.97
2022-11-22T15:09:53.511Z,60.10
2022-11-22T15:12:39.837Z,60.51
2022-11-22T15:58:28.060Z,61.40
2022-11-22T16:01:18.281Z,61.28
2022-11-22T16:03:43.698Z,60.91
2022-11-22T16:06:14.034Z,60.95
2022-11-22T16:08:48.225Z,61.03
2022-11-22T16:11:19.113Z,60.91
2022-11-22T16:13:46.546Z,61.05
2022-11-22T16:16:21.462Z,61.06
2022-11-22T16:18:50.651Z,60.90
2022-11-22T16:21:20.824Z,60.86
2022-11-22T16:23:48.247Z,61.12
2022-11-22T16:26:21.808Z,61.07
2022-11-22T16:28:51.139Z,60.98
2022-11-22T16:31:20.442Z,60.89
2022-11-22T16:33:47.869Z,60.84
2022-11-22T16:36:16.033Z,60.93
2022-11-22T16:38:43.542Z,61.02
2022-11-22T16:41:13.675Z,62.00
2022-11-22T16:43:42.366Z,61.47
2022-11-22T16:46:10.296Z,60.96
2022-11-22T16:48:37.689Z,60.85
2022-11-22T16:51:05.993Z,60.94
2022-11-22T16:53:39.239Z,60.89
2022-11-22T16:56:07.156Z,61.05
2022-11-22T16:58:34.552Z,60.79
2022-11-22T17:01:03.380Z,60.79
2022-11-22T17:03:31.902Z,60.98
2022-11-22T17:05:59.320Z,60.95
2022-11-22T17:08:26.722Z,60.94
2022-11-22T17:10:54.164Z,60.64
2022-11-22T17:13:22.952Z,60.72
2022-11-22T17:15:50.486Z,60.76
2022-11-22T17:18:19.252Z,60.83
2022-11-22T17:20:46.705Z,60.96
2022-11-22T17:23:16.612Z,60.69
2022-11-22T17:25:44.031Z,60.77
2022-11-22T17:28:11.552Z,60.54
2022-11-22T17:30:38.982Z,60.77
2022-11-22T17:33:06.389Z,60.70
2022-11-22T17:35:37.184Z,60.75
2022-11-22T17:38:05.128Z,60.76
2022-11-22T17:41:37.577Z,61.21
2022-11-22T17:44:05.572Z,61.49
2022-11-22T17:46:34.112Z,61.49
2022-11-22T17:49:02.120Z,61.92
2022-11-22T17:51:30.033Z,62.19
2022-11-22T17:53:58.142Z,62.09
2022-11-22T17:56:25.640Z,62.36
2022-11-22T17:58:54.333Z,62.41
2022-11-22T18:01:22.538Z,62.34
2022-11-22T18:03:50.002Z,62.10
2022-11-22T18:06:17.756Z,62.08
2022-11-22T18:08:47.203Z,62.21
2022-11-22T18:11:15.050Z,62.11
2022-11-22T18:13:42.532Z,62.37
2022-11-22T18:16:14.037Z,62.52
2022-11-22T18:18:56.336Z,62.50
2022-11-22T18:21:25.244Z,62.40
2022-11-22T18:23:52.650Z,62.53
2022-11-22T18:31:56.162Z,62.56
2022-11-22T18:34:23.814Z,62.43
2022-11-22T18:37:06.736Z,62.67
2022-11-22T18:39:36.081Z,62.33
2022-11-22T18:42:04.107Z,62.54
2022-11-22T18:44:31.518Z,62.42
2022-11-22T18:47:00.232Z,62.30
2022-11-22T18:49:27.737Z,62.21
2022-11-22T18:51:55.577Z,61.75
2022-11-22T18:54:23.163Z,61.56
2022-11-22T18:56:50.572Z,62.80
2022-11-22T18:59:17.982Z,62.38
2022-11-22T19:01:45.461Z,62.41
2022-11-22T19:04:14.975Z,62.46
2022-11-22T19:06:42.682Z,62.30
2022-11-22T19:09:10.294Z,62.60
2022-11-22T19:11:37.699Z,62.90
2022-11-22T19:14:05.107Z,62.26
2022-11-22T19:16:32.535Z,62.15
2022-11-22T19:19:00.094Z,62.52
2022-11-22T19:21:29.775Z,62.16
2022-11-22T19:23:57.422Z,62.43
2022-11-22T19:26:25.686Z,62.27
2022-11-22T19:28:55.402Z,62.25
2022-11-22T19:31:23.687Z,63.13
2022-11-22T19:33:51.083Z,63.24
2022-11-22T19:36:19.221Z,62.75
2022-11-22T19:38:47.977Z,63.36
2022-11-22T19:41:16.752Z,63.23
2022-11-22T19:43:44.319Z,63.07
2022-11-22T19:46:11.750Z,63.08
2022-11-22T19:48:45.334Z,63.15
2022-11-22T19:51:15.123Z,62.88
2022-11-22T19:53:42.761Z,62.92
2022-11-22T19:56:14.307Z,62.80
2022-11-22T19:58:41.832Z,62.64
2022-11-22T20:01:10.072Z,62.71
2022-11-22T20:03:38.760Z,62.84
2022-11-22T20:06:07.057Z,62.58
2022-11-22T20:08:34.460Z,62.40
2022-11-22T20:11:03.043Z,62.69
2022-11-22T20:13:34.228Z,62.26
2022-11-22T20:16:06.362Z,62.52
2022-11-22T20:18:33.763Z,62.34
2022-11-22T20:21:01.710Z,62.21
2022-11-22T20:23:29.119Z,62.04
2022-11-22T20:26:01.652Z,62.31
2022-11-22T20:28:29.067Z,65.38
2022-11-22T20:31:07.298Z,64.24
2022-11-22T20:33:34.985Z,64.26
2022-11-22T20:36:03.429Z,63.83
2022-11-22T20:38:33.097Z,63.98
2022-11-22T20:41:00.570Z,63.73
2022-11-22T20:43:28.021Z,63.73
2022-11-22T20:46:02.036Z,63.73
2022-11-22T20:48:31.579Z,63.66
2022-11-22T20:50:59.025Z,63.58
2022-11-22T20:53:26.456Z,63.57
2022-11-22T20:55:54.374Z,63.61
2022-11-22T20:58:21.872Z,63.50
2022-11-22T21:00:49.301Z,63.47
2022-11-22T21:03:16.778Z,63.78
2022-11-22T21:05:46.820Z,63.67
2022-11-22T21:08:16.518Z,63.67
2022-11-22T21:10:46.582Z,63.33
2022-11-22T21:13:14.042Z,63.67
2022-11-22T21:15:48.030Z,63.45
2022-11-22T21:18:25.261Z,63.35
2022-11-22T21:20:54.676Z,63.26
2022-11-22T21:23:22.085Z,63.32
2022-11-22T21:25:51.744Z,63.30
2022-11-22T21:28:19.243Z,63.51
2022-11-22T21:30:46.649Z,63.28
2022-11-22T21:33:14.066Z,63.64
2022-11-22T21:35:45.016Z,63.54
2022-11-22T21:38:14.622Z,63.21
2022-11-22T21:40:51.403Z,63.41
2022-11-22T21:43:18.846Z,63.48
2022-11-22T21:45:46.262Z,63.38
2022-11-22T21:48:13.678Z,63.44
2022-11-22T21:50:41.089Z,63.42
2022-11-22T21:53:08.524Z,63.43
2022-11-22T21:55:37.225Z,63.47
2022-11-22T21:58:04.742Z,63.64
2022-11-22T22:00:32.143Z,63.54
2022-11-22T22:02:59.604Z,63.56
2022-11-22T22:05:27.147Z,63.64
2022-11-22T22:07:54.636Z,63.53
2022-11-22T22:10:22.099Z,63.37
2022-11-22T22:12:52.816Z,63.36
2022-11-22T22:15:20.246Z,63.58
2022-11-22T22:17:47.655Z,63.15
2022-11-22T22:20:15.080Z,63.19
2022-11-22T22:22:42.494Z,62.85
2022-11-22T22:25:10.114Z,63.01
2022-11-22T22:27:37.528Z,63.21
2022-11-22T22:30:08.056Z,62.78
2022-11-22T22:32:35.539Z,62.66
2022-11-22T22:35:02.972Z,62.85
2022-11-22T22:37:30.383Z,62.56
2022-11-22T22:39:57.814Z,62.67
2022-11-22T22:42:25.313Z,62.57
2022-11-22T22:44:52.731Z,62.59
2022-11-22T22:47:21.432Z,62.43
2022-11-22T22:49:48.889Z,62.22
2022-11-22T22:52:16.370Z,62.40
2022-11-22T22:54:43.797Z,62.17
2022-11-22T22:57:11.296Z,61.90
2022-11-22T22:59:38.712Z,61.92
2022-11-22T23:02:06.509Z,61.78
2022-11-22T23:04:35.548Z,61.43
2022-11-22T23:07:03.155Z,61.33
2022-11-22T23:09:30.954Z,61.16
2022-11-22T23:12:13.436Z,61.07
2022-11-22T23:14:41.093Z,61.07
2022-11-22T23:17:09.279Z,61.03
2022-11-22T23:19:38.109Z,60.86
2022-11-22T23:22:05.798Z,60.93
2022-11-22T23:24:33.697Z,60.71
2022-11-22T23:27:01.166Z,60.62
2022-11-22T23:29:28.871Z,60.46
2022-11-22T23:31:56.473Z,60.42
2022-11-22T23:34:23.885Z,60.48
2022-11-22T23:36:52.611Z,60.35
2022-11-22T23:39:20.025Z,60.41
2022-11-22T23:41:47.443Z,60.17
2022-11-22T23:44:14.916Z,60.09
2022-11-22T23:46:42.330Z,60.02
2022-11-22T23:49:11.024Z,59.74
2022-11-22T23:51:38.477Z,59.80
2022-11-22T23:54:10.584Z,59.76
2022-11-22T23:56:38.034Z,59.71
2022-11-22T23:59:05.927Z,59.76
